Time;durP1;ratioP1;P1;durP2;ratioP2;P2;SDS_P1;SDS_P2;PMS_P1;PMS_P2;Temp;Humidity;BMP_temperature;BMP_pressure;BME280_temperature;BME280_humidity;BME280_pressure;Samples;Min_cycle;Max_cycle;Signal;HPM_P1;HPM_P2
2023/04/16 00:02:00;;;;;;;38.97;19.58;;;;;;;7.21;100.00;101342.69;5002017;28;20101;-76
2023/04/16 00:04:25;;;;;;;31.33;19.15;;;;;;;7.25;100.00;101349.44;5002005;28;20565;-77
2023/04/16 00:06:51;;;;;;;34.83;19.23;;;;;;;7.21;100.00;101338.22;4969342;28;20050;-77
2023/04/16 00:09:16;;;;;;;37.60;19.20;;;;;;;7.25;100.00;101346.78;4986361;28;20518;-77
2023/04/16 00:11:41;;;;;;;31.70;18.87;;;;;;;7.16;100.00;101324.47;4986996;28;20414;-77
2023/04/16 00:14:07;;;;;;;31.77;18.50;;;;;;;7.16;100.00;101320.03;4986681;28;20070;-78
2023/04/16 00:16:32;;;;;;;31.87;18.77;;;;;;;7.25;100.00;101326.38;4986937;28;20037;-77
2023/04/16 00:18:57;;;;;;;34.60;18.77;;;;;;;7.23;100.00;101319.50;5001693;28;20046;-77
2023/04/16 00:21:23;;;;;;;31.00;18.60;;;;;;;7.29;100.00;101313.69;4985795;28;20030;-77
2023/04/16 00:23:48;;;;;;;34.30;18.53;;;;;;;7.26;100.00;101305.94;5001430;28;20468;-77
2023/04/16 00:26:13;;;;;;;32.93;18.07;;;;;;;7.21;100.00;101287.78;5002476;28;20483;-77
2023/04/16 00:28:41;;;;;;;34.45;18.10;;;;;;;7.25;100.00;101288.34;4987045;28;20088;-77
2023/04/16 00:31:07;;;;;;;31.63;19.17;;;;;;;7.24;100.00;101284.03;5001730;28;20443;-77
2023/04/16 00:33:32;;;;;;;33.55;17.65;;;;;;;7.23;100.00;101284.97;4985690;28;20030;-77
2023/04/16 00:35:58;;;;;;;32.93;18.70;;;;;;;7.24;100.00;101284.03;5001969;28;20054;-77
2023/04/16 00:38:23;;;;;;;35.42;19.30;;;;;;;7.26;100.00;101276.75;4969318;28;20133;-77
2023/04/16 00:40:49;;;;;;;30.47;17.73;;;;;;;7.25;100.00;101283.03;5001652;28;20076;-78
2023/04/16 00:43:26;;;;;;;32.33;17.90;;;;;;;7.30;100.00;101283.47;5001669;28;20073;-77
2023/04/16 00:45:52;;;;;;;31.98;18.73;;;;;;;7.29;100.00;101272.03;4985361;28;20286;-77
2023/04/16 00:48:19;;;;;;;;;;;;;;;7.31;100.00;101275.41;5002040;28;20781;-77
2023/04/16 00:50:47;;;;;;;33.45;18.33;;;;;;;7.21;100.00;101257.69;4985338;28;20506;-77
2023/04/16 00:53:13;;;;;;;29.92;19.33;;;;;;;7.24;100.00;101257.47;5004572;28;20039;-78
2023/04/16 00:55:39;;;;;;;36.78;19.73;;;;;;;7.22;100.00;101267.38;4972935;28;20034;-77
2023/04/16 00:58:05;;;;;;;33.60;19.08;;;;;;;7.19;100.00;101271.97;4988660;28;20184;-77
2023/04/16 01:00:30;;;;;;;36.38;20.13;;;;;;;7.21;100.00;101265.66;5005341;28;20099;-78
2023/04/16 01:02:56;;;;;;;36.28;19.70;;;;;;;7.22;100.00;101278.00;4972985;28;20407;-77
2023/04/16 01:05:21;;;;;;;36.05;18.95;;;;;;;7.22;100.00;101286.78;5005243;28;20034;-78
2023/04/16 01:07:47;;;;;;;36.33;18.67;;;;;;;7.19;100.00;101297.69;5004944;28;20038;-78
2023/04/16 01:10:12;;;;;;;31.33;18.50;;;;;;;7.21;100.00;101294.88;5005046;28;20038;-77
2023/04/16 01:12:37;;;;;;;30.07;19.97;;;;;;;7.25;100.00;101301.63;5004645;28;20042;-77
2023/04/16 01:15:03;;;;;;;27.83;17.47;;;;;;;7.34;100.00;101311.50;4987074;28;20038;-77
2023/04/16 01:17:29;;;;;;;37.92;19.60;;;;;;;7.22;100.00;101286.78;4988618;28;20435;-77
2023/04/16 01:19:58;;;;;;;32.28;18.48;;;;;;;7.30;100.00;101297.59;5004452;28;20043;-77
2023/04/16 01:22:23;;;;;;;32.08;17.85;;;;;;;7.30;100.00;101299.41;5004670;28;20042;-78
2023/04/16 01:24:48;;;;;;;27.07;16.93;;;;;;;7.32;100.00;101308.94;4989248;28;20014;-77
2023/04/16 01:27:14;;;;;;;41.50;18.87;;;;;;;7.36;100.00;101301.59;5004729;28;20032;-79
2023/04/16 01:29:40;;;;;;;33.40;18.85;;;;;;;7.34;100.00;101292.91;5004853;28;20030;-78
2023/04/16 01:32:06;;;;;;;29.77;17.88;;;;;;;7.31;100.00;101293.16;4986999;28;20026;-77
2023/04/16 01:34:34;;;;;;;29.52;16.83;;;;;;;7.30;100.00;101284.31;5004559;28;20030;-80
2023/04/16 01:37:00;;;;;;;28.40;18.05;;;;;;;7.26;100.00;101279.41;4973320;28;20026;-79
2023/04/16 01:39:26;;;;;;;28.85;16.73;;;;;;;7.32;100.00;101289.50;4985957;28;20362;-76
2023/04/16 01:41:51;;;;;;;27.63;17.33;;;;;;;7.32;100.00;101286.88;4972483;28;20426;-77
2023/04/16 01:44:16;;;;;;;27.30;16.73;;;;;;;7.38;100.00;101297.00;4971826;28;20483;-79
2023/04/16 01:46:43;;;;;;;35.80;19.65;;;;;;;7.44;100.00;101296.47;4983094;28;20085;-78
2023/04/16 01:49:08;;;;;;;25.25;16.83;;;;;;;7.33;100.00;101284.09;5004126;28;20038;-79
2023/04/16 01:51:33;;;;;;;33.27;18.50;;;;;;;7.36;100.00;101294.44;4989164;28;20037;-79
2023/04/16 01:53:59;;;;;;;34.37;19.20;;;;;;;7.37;100.00;101297.94;4983100;28;20038;-79
2023/04/16 01:56:25;;;;;;;29.75;17.85;;;;;;;7.35;100.00;101278.63;4971289;28;20118;-79
2023/04/16 01:58:51;;;;;;;34.42;17.80;;;;;;;7.30;100.00;101291.47;4982111;28;20126;-76
2023/04/16 02:01:18;;;;;;;36.05;19.27;;;;;;;7.34;100.00;101300.88;4971719;28;20095;-78
2023/04/16 02:03:44;;;;;;;34.50;17.65;;;;;;;7.30;100.00;101286.16;4981529;28;20518;-79
2023/04/16 02:06:10;;;;;;;31.83;18.63;;;;;;;7.37;100.00;101297.94;5003933;28;20347;-79
2023/04/16 02:08:35;;;;;;;30.13;17.50;;;;;;;7.37;100.00;101287.31;4970585;28;20042;-80
2023/04/16 02:11:01;;;;;;;28.80;18.30;;;;;;;7.45;100.00;101298.16;4973620;28;20121;-75
2023/04/16 02:13:26;;;;;;;30.02;17.75;;;;;;;7.53;100.00;101306.31;4987706;28;20443;-77
2023/04/16 02:15:52;;;;;;;29.90;18.13;;;;;;;7.52;100.00;101293.19;4983659;28;20038;-79
2023/04/16 02:18:35;;;;;;;31.90;19.55;;;;;;;7.51;100.00;101279.03;4976610;28;20030;-80
2023/04/16 02:21:01;;;;;;;34.63;18.87;;;;;;;7.50;100.00;101277.34;4974559;28;20041;-75
2023/04/16 02:23:26;;;;;;;34.17;19.40;;;;;;;7.36;100.00;101270.53;5006748;28;20292;-77
2023/04/16 02:25:52;;;;;;;33.78;19.55;;;;;;;7.45;100.00;101298.16;4975655;28;20022;-77
2023/04/16 02:28:18;;;;;;;29.27;18.17;;;;;;;7.50;100.00;101301.25;4973974;28;20415;-80
2023/04/16 02:30:45;;;;;;;33.55;19.67;;;;;;;7.47;100.00;101304.19;4977005;28;20031;-76
2023/04/16 02:33:12;;;;;;;33.25;20.10;;;;;;;7.44;100.00;101308.91;5006400;28;20793;-78
2023/04/16 02:35:42;;;;;;;37.67;20.70;;;;;;;7.41;100.00;101320.63;4974037;28;20066;-76
2023/04/16 02:38:07;;;;;;;32.80;19.07;;;;;;;7.45;100.00;101356.59;4997747;28;20060;-80
2023/04/16 02:40:34;;;;;;;35.85;21.23;;;;;;;7.46;100.00;101352.13;5005451;28;20472;-80
2023/04/16 02:43:00;;;;;;;40.20;21.45;;;;;;;7.41;100.00;101355.16;5005496;28;20038;-80
2023/04/16 02:45:26;;;;;;;38.00;22.15;;;;;;;7.47;100.00;101362.63;4989584;28;20027;-77
2023/04/16 02:47:51;;;;;;;35.30;22.83;;;;;;;7.40;100.00;101359.63;5006148;28;20034;-78
2023/04/16 02:50:17;;;;;;;41.40;22.67;;;;;;;7.49;100.00;101363.34;5008583;28;20427;-76
2023/04/16 02:52:42;;;;;;;38.10;21.23;;;;;;;7.55;100.00;101367.31;4980930;28;20514;-76
2023/04/16 02:55:08;;;;;;;36.37;20.67;;;;;;;7.51;100.00;101345.44;5014902;28;20070;-78
2023/04/16 02:57:34;;;;;;;36.38;21.08;;;;;;;7.51;100.00;101356.06;4976210;28;20399;-79
2023/04/16 03:00:00;;;;;;;39.97;22.00;;;;;;;7.47;100.00;101344.03;4988814;28;20121;-77
2023/04/16 03:02:26;;;;;;;33.17;20.52;;;;;;;7.51;100.00;101345.44;4972893;28;20034;-75
2023/04/16 03:04:52;;;;;;;32.28;20.13;;;;;;;7.54;100.00;101339.91;4987062;28;20037;-79
2023/04/16 03:07:18;;;;;;;40.90;20.65;;;;;;;7.45;100.00;101330.03;4972825;28;20042;-79
2023/04/16 03:09:43;;;;;;;34.10;20.13;;;;;;;7.46;100.00;101334.38;4991630;28;20042;-76
2023/04/16 03:12:09;;;;;;;35.67;20.85;;;;;;;7.49;100.00;101335.94;5005913;28;20344;-80
2023/04/16 03:14:34;;;;;;;42.65;20.73;;;;;;;7.47;100.00;101329.88;5004330;28;20035;-80
2023/04/16 03:17:00;;;;;;;39.20;20.63;;;;;;;7.49;100.00;101343.91;5005340;28;20648;-78
2023/04/16 03:19:25;;;;;;;36.15;21.45;;;;;;;7.46;100.00;101341.50;4972832;28;20873;-79
2023/04/16 03:21:51;;;;;;;38.45;20.83;;;;;;;7.42;100.00;101340.06;4987169;28;20085;-75
2023/04/16 03:24:16;;;;;;;36.80;20.85;;;;;;;7.51;100.00;101365.88;4977919;28;20471;-74
2023/04/16 03:26:42;;;;;;;33.90;19.83;;;;;;;7.51;100.00;101361.38;5011308;28;20030;-77
2023/04/16 03:29:08;;;;;;;36.38;18.30;;;;;;;7.48;100.00;101348.38;4978633;28;20030;-78
2023/04/16 03:31:33;;;;;;;37.23;19.67;;;;;;;7.50;100.00;101349.09;4978202;28;20070;-79
2023/04/16 03:33:59;;;;;;;38.38;21.38;;;;;;;7.55;100.00;101362.84;4972785;28;20038;-79
2023/04/16 03:36:26;;;;;;;29.58;19.23;;;;;;;7.40;100.00;101332.25;4976673;28;20053;-78
2023/04/16 03:38:51;;;;;;;38.30;21.70;;;;;;;7.47;100.00;101354.66;5007401;28;20096;-76
2023/04/16 03:41:17;;;;;;;33.75;21.60;;;;;;;7.54;100.00;101366.47;4975876;28;20034;-77
2023/04/16 03:43:42;;;;;;;37.90;20.43;;;;;;;7.53;100.00;101358.63;4988516;28;20062;-77
2023/04/16 03:46:09;;;;;;;32.08;19.65;;;;;;;7.54;100.00;101355.84;4994009;28;20035;-78
2023/04/16 03:48:35;;;;;;;37.95;21.58;;;;;;;7.49;100.00;101344.75;4984598;28;20054;-79
2023/04/16 03:51:01;;;;;;;35.38;20.67;;;;;;;7.46;100.00;101342.34;5012752;28;20030;-75
2023/04/16 03:53:27;;;;;;;;;;;;;;;7.52;100.00;101363.09;4979819;28;20168;-79
2023/04/16 03:55:52;;;;;;;31.70;19.83;;;;;;;7.38;100.00;101345.63;5009689;28;19961;-76
2023/04/16 03:58:19;;;;;;;38.97;19.90;;;;;;;7.33;100.00;101344.34;4977522;28;20042;-78
2023/04/16 04:00:46;;;;;;;39.75;19.73;;;;;;;7.39;100.00;101362.41;4977460;28;20849;-78
2023/04/16 04:03:15;;;;;;;34.08;17.98;;;;;;;7.49;100.00;101371.34;5004253;28;20113;-79
2023/04/16 04:05:42;;;;;;;33.53;17.85;;;;;;;7.38;100.00;101360.75;5003834;28;20092;-76
2023/04/16 04:08:10;;;;;;;33.92;19.40;;;;;;;7.48;100.00;101361.66;5003670;28;20118;-77
2023/04/16 04:10:36;;;;;;;28.92;17.17;;;;;;;7.65;100.00;101368.22;4987513;28;20054;-76
2023/04/16 04:13:04;;;;;;;28.77;18.08;;;;;;;7.65;100.00;101346.13;4987228;28;20566;-78
2023/04/16 04:15:31;;;;;;;35.40;20.10;;;;;;;7.56;100.00;101327.34;4983214;28;20018;-76
2023/04/16 04:17:56;;;;;;;29.07;17.00;;;;;;;7.57;100.00;101321.03;5003920;28;20042;-75
2023/04/16 04:20:22;;;;;;;32.53;18.23;;;;;;;7.56;100.00;101316.69;4987377;28;20734;-77
2023/04/16 04:22:49;;;;;;;32.25;16.77;;;;;;;7.55;100.00;101303.53;4995510;28;20503;-79
2023/04/16 04:25:16;;;;;;;;;;;;;;;7.54;100.00;101304.53;4988308;28;21084;-76
2023/04/16 04:27:41;;;;;;;34.50;18.42;;;;;;;7.59;100.00;101327.06;4987019;28;20009;-76
2023/04/16 04:30:07;;;;;;;35.00;19.33;;;;;;;7.55;100.00;101338.91;5008065;28;20022;-79
2023/04/16 04:32:33;;;;;;;34.58;17.67;;;;;;;7.51;100.00;101356.06;5003800;28;20026;-80
2023/04/16 04:35:01;;;;;;;31.63;18.10;;;;;;;7.55;100.00;101383.25;4974234;28;20034;-78
2023/04/16 04:37:26;;;;;;;31.38;17.58;;;;;;;7.43;100.00;101390.44;5005420;28;20076;-78
2023/04/16 04:39:52;;;;;;;32.35;17.42;;;;;;;7.36;100.00;101416.66;4974149;28;20050;-79
2023/04/16 04:42:18;;;;;;;30.30;18.47;;;;;;;7.34;100.00;101431.84;5007038;28;20068;-80
2023/04/16 04:44:44;;;;;;;35.60;20.20;;;;;;;7.38;100.00;101459.88;5006660;28;20506;-79
2023/04/16 04:47:10;;;;;;;36.45;18.83;;;;;;;7.32;100.00;101441.75;5007709;28;20495;-79
2023/04/16 04:49:35;;;;;;;28.63;18.57;;;;;;;7.38;100.00;101451.91;4988740;28;20069;-78
2023/04/16 04:52:01;;;;;;;30.60;16.75;;;;;;;7.29;100.00;101441.19;4973940;28;20360;-75
2023/04/16 04:54:27;;;;;;;34.13;18.30;;;;;;;7.33;100.00;101435.50;4974093;28;20129;-75
2023/04/16 04:56:53;;;;;;;29.50;17.70;;;;;;;7.44;100.00;101445.22;4990368;28;20113;-80
2023/04/16 04:59:20;;;;;;;29.88;18.75;;;;;;;7.54;100.00;101435.56;4973630;28;20551;-78
2023/04/16 05:01:46;;;;;;;39.20;18.50;;;;;;;7.59;100.00;101430.69;5005905;28;20427;-75
2023/04/16 05:04:11;;;;;;;27.60;16.60;;;;;;;7.58;100.00;101415.72;5006415;28;20077;-76
2023/04/16 05:06:36;;;;;;;29.70;17.47;;;;;;;7.66;100.00;101390.34;4974312;28;20650;-77
2023/04/16 05:09:02;;;;;;;32.07;17.83;;;;;;;7.58;100.00;101365.22;4973370;28;20046;-78
2023/04/16 05:11:28;;;;;;;27.80;15.87;;;;;;;7.68;100.00;101361.78;4974801;28;20034;-77
2023/04/16 05:13:53;;;;;;;28.15;17.23;;;;;;;7.55;100.00;101332.75;4989294;28;20291;-77
2023/04/16 05:16:19;;;;;;;34.20;17.17;;;;;;;7.67;100.00;101346.84;4973322;28;20018;-78
2023/04/16 05:18:44;;;;;;;31.40;17.60;;;;;;;7.69;100.00;101331.59;4993505;28;20049;-78
2023/04/16 05:21:09;;;;;;;34.10;18.00;;;;;;;7.64;100.00;101326.69;5006016;28;20076;-77
2023/04/16 05:23:35;;;;;;;27.83;16.93;;;;;;;7.64;100.00;101339.13;4989074;28;20107;-77
2023/04/16 05:26:00;;;;;;;28.50;16.90;;;;;;;7.66;100.00;101331.88;4979967;28;20030;-76
2023/04/16 05:28:25;;;;;;;31.70;16.93;;;;;;;7.79;100.00;101338.66;4990481;28;20484;-76
2023/04/16 05:30:51;;;;;;;28.47;15.60;;;;;;;7.81;100.00;101330.56;4995405;28;20499;-75
2023/04/16 05:33:16;;;;;;;27.17;16.10;;;;;;;7.83;100.00;101320.66;4989389;28;20396;-76
2023/04/16 05:35:41;;;;;;;29.60;15.77;;;;;;;7.85;100.00;101310.72;5005479;28;20391;-75
2023/04/16 05:38:07;;;;;;;26.23;15.93;;;;;;;7.73;100.00;101295.84;5005593;28;20357;-77
2023/04/16 05:40:32;;;;;;;33.80;17.93;;;;;;;7.69;100.00;101305.03;5005621;28;20023;-75
2023/04/16 05:42:57;;;;;;;26.10;16.90;;;;;;;7.74;100.00;101330.22;4975060;28;20034;-78
2023/04/16 05:45:23;;;;;;;29.17;16.33;;;;;;;7.80;100.00;101334.22;4991989;28;20038;-77
2023/04/16 05:47:48;;;;;;;36.70;18.70;;;;;;;7.79;100.00;101327.19;5005483;28;20046;-78
2023/04/16 05:50:13;;;;;;;27.07;16.20;;;;;;;7.79;100.00;101332.50;5005357;28;20062;-77
2023/04/16 05:52:39;;;;;;;29.57;15.13;;;;;;;7.74;100.00;101324.09;4990415;28;20640;-75
2023/04/16 05:55:05;;;;;;;31.30;14.63;;;;;;;7.92;100.00;101348.28;4988441;28;20031;-78
2023/04/16 05:57:30;;;;;;;31.60;16.27;;;;;;;8.01;100.00;101348.31;4972860;28;21199;-77
2023/04/16 05:59:55;;;;;;;30.07;16.60;;;;;;;8.08;100.00;101353.09;4984308;28;20046;-74
2023/04/16 06:02:21;;;;;;;25.27;15.90;;;;;;;7.92;100.00;101319.03;4987382;28;20042;-76
2023/04/16 06:04:46;;;;;;;26.35;14.77;;;;;;;7.91;100.00;101310.19;4972873;28;20631;-75
2023/04/16 06:07:12;;;;;;;28.50;15.70;;;;;;;7.79;100.00;101312.06;4988616;28;20399;-78
2023/04/16 06:09:37;;;;;;;28.43;14.73;;;;;;;7.95;100.00;101338.19;4988642;28;20049;-78
2023/04/16 06:12:03;;;;;;;35.13;16.50;;;;;;;8.06;100.00;101347.09;5005345;28;20052;-77
2023/04/16 06:14:28;;;;;;;29.33;16.70;;;;;;;8.06;100.00;101328.47;4986674;28;20043;-77
2023/04/16 06:16:54;;;;;;;27.47;16.07;;;;;;;8.16;100.00;101334.69;5005595;28;20030;-78
2023/04/16 06:19:19;;;;;;;26.73;14.10;;;;;;;8.13;100.00;101303.03;4973117;28;20030;-79
2023/04/16 06:21:44;;;;;;;27.27;14.70;;;;;;;8.03;100.00;101281.72;5005884;28;20041;-77
2023/04/16 06:24:10;;;;;;;32.90;15.20;;;;;;;8.00;100.00;101266.84;5006045;28;20027;-77
2023/04/16 06:26:35;;;;;;;26.97;15.37;;;;;;;8.02;100.00;101270.22;4987184;28;20034;-76
2023/04/16 06:29:00;;;;;;;29.73;15.30;;;;;;;8.07;100.00;101276.97;5004750;28;20034;-74
2023/04/16 06:31:26;;;;;;;26.73;14.43;;;;;;;8.15;100.00;101283.31;5007841;28;20499;-74
2023/04/16 06:33:51;;;;;;;25.97;15.50;;;;;;;8.16;100.00;101292.13;4973366;28;20041;-78
2023/04/16 06:36:16;;;;;;;27.70;14.33;;;;;;;8.10;100.00;101271.38;5006685;28;20514;-77
2023/04/16 06:38:42;;;;;;;25.47;15.93;;;;;;;8.10;100.00;101272.25;4974077;28;20030;-74
2023/04/16 06:41:08;;;;;;;28.57;15.23;;;;;;;8.10;100.00;101282.88;5004759;28;20038;-78
2023/04/16 06:43:33;;;;;;;29.27;15.20;;;;;;;8.17;100.00;101293.78;4973703;28;20285;-77
2023/04/16 06:45:59;;;;;;;24.75;13.77;;;;;;;8.23;100.00;101299.44;4986864;28;20042;-77
2023/04/16 06:48:24;;;;;;;30.67;14.20;;;;;;;8.19;100.00;101279.41;4989591;28;20522;-78
2023/04/16 06:50:50;;;;;;;26.25;14.27;;;;;;;8.20;100.00;101296.22;5005847;28;20022;-79
2023/04/16 06:53:15;;;;;;;24.53;14.87;;;;;;;8.18;100.00;101300.81;5005744;28;20034;-78
2023/04/16 06:55:40;;;;;;;22.33;12.90;;;;;;;8.23;100.00;101304.75;4988821;28;20439;-76
2023/04/16 06:58:06;;;;;;;25.20;13.80;;;;;;;8.22;100.00;101291.59;4985580;28;20034;-76
2023/04/16 07:00:31;;;;;;;29.65;14.82;;;;;;;8.20;100.00;101294.38;4977223;28;20030;-78
2023/04/16 07:02:59;;;;;;;20.80;13.47;;;;;;;8.28;100.00;101311.50;5004745;28;20062;-76
2023/04/16 07:05:25;;;;;;;25.38;13.98;;;;;;;8.13;100.00;101287.09;4972240;28;20026;-76
2023/04/16 07:07:51;;;;;;;24.67;14.82;;;;;;;8.12;100.00;101301.34;5005475;28;20125;-75
2023/04/16 07:10:17;;;;;;;32.72;15.35;;;;;;;8.12;100.00;101302.19;4973017;28;20054;-78
2023/04/16 07:12:42;;;;;;;23.80;13.85;;;;;;;8.15;100.00;101306.41;4975375;28;20487;-77
2023/04/16 07:15:08;;;;;;;29.53;13.70;;;;;;;8.34;100.00;101322.44;5006004;28;20019;-77
2023/04/16 07:17:33;;;;;;;24.20;13.13;;;;;;;8.29;100.00;101306.06;5005641;28;20557;-77
2023/04/16 07:19:59;;;;;;;25.87;15.27;;;;;;;8.19;100.00;101273.22;4972940;28;20042;-78
2023/04/16 07:22:24;;;;;;;22.60;12.80;;;;;;;8.18;100.00;101308.81;4973114;28;20121;-79
2023/04/16 07:24:50;;;;;;;25.90;13.95;;;;;;;8.21;100.00;101322.66;4971262;28;20062;-78
2023/04/16 07:27:15;;;;;;;30.43;16.13;;;;;;;8.33;100.00;101339.38;5006884;28;20080;-78
2023/04/16 07:29:41;;;;;;;23.95;13.73;;;;;;;8.33;100.00;101336.72;5006420;28;20104;-77
2023/04/16 07:32:06;;;;;;;26.00;13.83;;;;;;;8.24;100.00;101310.91;5006448;28;20034;-77
2023/04/16 07:34:32;;;;;;;21.48;14.40;;;;;;;8.33;100.00;101314.59;4983132;23;20019;-80
2023/04/16 07:36:57;;;;;;;20.70;13.23;;;;;;;8.45;100.00;101317.06;4995052;28;20512;-80
2023/04/16 07:39:23;;;;;;;25.87;13.40;;;;;;;8.41;100.00;101325.44;5011658;28;20067;-81
2023/04/16 07:41:48;;;;;;;24.17;14.90;;;;;;;8.43;100.00;101328.81;5011216;28;20034;-81
2023/04/16 07:44:13;;;;;;;27.37;15.10;;;;;;;8.52;100.00;101330.69;5008159;28;20455;-80
2023/04/16 07:46:39;;;;;;;23.27;14.87;;;;;;;8.51;100.00;101297.03;5007723;28;20129;-81
2023/04/16 07:49:04;;;;;;;29.03;15.63;;;;;;;8.62;100.00;101298.78;5011069;28;20460;-81
2023/04/16 07:51:30;;;;;;;25.63;13.63;;;;;;;8.63;100.00;101281.81;4995068;28;20460;-80
2023/04/16 07:53:55;;;;;;;26.15;14.57;;;;;;;8.60;100.00;101250.97;5009735;28;20785;-80
2023/04/16 07:56:21;;;;;;;23.17;14.33;;;;;;;8.65;100.00;101277.19;5011710;28;20136;-80
2023/04/16 07:58:46;;;;;;;25.27;14.03;;;;;;;8.62;100.00;101256.19;5012463;28;20563;-79
2023/04/16 08:01:12;;;;;;;25.10;13.53;;;;;;;8.81;100.00;101297.97;5013143;28;20068;-79
2023/04/16 08:03:37;;;;;;;25.92;12.75;;;;;;;8.80;100.00;101281.16;5012991;28;20037;-80
2023/04/16 08:06:03;;;;;;;26.07;14.77;;;;;;;8.70;100.00;101240.34;4996901;28;20034;-80
2023/04/16 08:08:28;;;;;;;26.63;14.53;;;;;;;8.64;100.00;101239.09;5018589;28;20126;-79
2023/04/16 08:10:54;;;;;;;20.75;13.45;;;;;;;8.79;100.00;101281.28;5013273;28;20037;-80
2023/04/16 08:13:22;;;;;;;22.42;13.75;;;;;;;8.75;100.00;101264.72;5013105;28;20891;-79
2023/04/16 08:15:47;;;;;;;22.25;14.07;;;;;;;8.58;100.00;101244.13;5013210;28;20018;-79
2023/04/16 08:18:14;;;;;;;23.47;15.23;;;;;;;8.50;100.00;101257.25;5008732;23;20053;-75
2023/04/16 08:20:40;;;;;;;20.77;13.27;;;;;;;8.55;100.00;101287.81;4989438;28;20368;-74
2023/04/16 08:23:05;;;;;;;21.90;13.93;;;;;;;8.55;100.00;101301.13;4990646;28;20027;-75
2023/04/16 08:25:31;;;;;;;24.67;14.03;;;;;;;8.37;100.00;101284.91;4982816;28;20401;-75
2023/04/16 08:27:56;;;;;;;23.23;14.10;;;;;;;8.41;100.00;101312.97;4970106;28;20027;-74
2023/04/16 08:30:22;;;;;;;31.00;15.20;;;;;;;8.50;100.00;101327.31;4969969;28;20031;-75
2023/04/16 08:32:47;;;;;;;24.52;14.50;;;;;;;8.55;100.00;101326.91;4985421;28;20488;-74
2023/04/16 08:35:12;;;;;;;23.70;14.23;;;;;;;8.52;100.00;101332.47;4959830;28;20035;-74
2023/04/16 08:37:38;;;;;;;26.07;15.03;;;;;;;8.68;100.00;101359.44;4969917;28;20133;-73
2023/04/16 08:40:04;;;;;;;24.53;14.43;;;;;;;8.79;100.00;101342.53;4980770;28;20053;-73
2023/04/16 08:42:32;;;;;;;27.98;15.45;;;;;;;8.95;100.00;101332.19;4988028;28;20700;-74
2023/04/16 08:45:07;;;;;;;22.25;14.38;;;;;;;9.00;100.00;101307.81;4988952;28;20427;-75
2023/04/16 08:47:34;;;;;;;28.55;14.85;;;;;;;9.07;100.00;101282.28;4987979;28;20121;-76
2023/04/16 08:50:02;;;;;;;26.23;14.38;;;;;;;9.11;100.00;101285.50;4978984;28;20038;-75
2023/04/16 08:52:30;;;;;;;29.98;15.00;;;;;;;9.15;100.00;101274.44;4973993;28;20109;-73
2023/04/16 08:55:02;;;;;;;26.92;15.25;;;;;;;9.19;100.00;101269.69;4997403;28;20034;-76
2023/04/16 08:57:36;;;;;;;25.45;14.93;;;;;;;9.18;100.00;101263.50;4956033;28;20035;-75
2023/04/16 09:00:01;;;;;;;27.13;15.45;;;;;;;9.19;100.00;101259.03;4970594;28;20069;-74
2023/04/16 09:02:27;;;;;;;26.83;14.60;;;;;;;9.18;100.00;101270.66;4985756;28;20066;-74
2023/04/16 09:04:55;;;;;;;26.83;15.05;;;;;;;9.16;100.00;101277.97;4973946;28;20054;-73
2023/04/16 09:07:21;;;;;;;23.73;14.30;;;;;;;9.12;100.00;101297.84;4980256;28;20141;-73
2023/04/16 09:09:48;;;;;;;25.38;14.70;;;;;;;9.15;100.00;101310.88;4981312;28;20133;-74
2023/04/16 09:12:14;;;;;;;30.92;15.27;;;;;;;9.20;100.00;101305.97;4982711;28;20034;-75
2023/04/16 09:14:41;;;;;;;25.73;15.02;;;;;;;9.17;100.00;101295.59;4983154;28;20041;-75
2023/04/16 09:17:07;;;;;;;24.67;14.52;;;;;;;9.13;100.00;101286.22;4985663;28;20061;-73
2023/04/16 09:19:33;;;;;;;23.75;14.73;;;;;;;9.21;100.00;101297.84;4984534;28;20045;-73
2023/04/16 09:21:58;;;;;;;25.80;14.90;;;;;;;9.26;100.00;101316.09;4970997;28;20046;-75
2023/04/16 09:24:24;;;;;;;21.80;14.87;;;;;;;9.26;100.00;101340.91;4997742;28;20050;-75
2023/04/16 09:26:51;;;;;;;24.05;15.27;;;;;;;9.26;100.00;101335.56;4975296;28;20053;-75
2023/04/16 09:29:36;;;;;;;21.98;14.50;;;;;;;9.11;100.00;101291.69;4968788;28;20367;-74
2023/04/16 09:32:11;;;;;;;27.95;16.27;;;;;;;9.29;100.00;101327.31;4981635;28;20673;-75
2023/04/16 09:34:54;;;;;;;23.67;14.38;;;;;;;9.27;100.00;101304.44;4982211;28;20541;-75
2023/04/16 09:37:20;;;;;;;21.80;14.15;;;;;;;9.26;100.00;101308.94;4981082;28;20101;-74
2023/04/16 09:39:55;;;;;;;25.50;15.77;;;;;;;9.36;100.00;101329.41;4980534;28;20479;-72
2023/04/16 09:42:26;;;;;;;24.88;14.05;;;;;;;9.35;100.00;101303.75;4968660;28;20034;-73
2023/04/16 09:44:52;;;;;;;20.83;13.63;;;;;;;9.34;100.00;101320.72;4959499;28;20039;-74
2023/04/16 09:47:18;;;;;;;26.40;14.48;;;;;;;9.37;100.00;101342.59;4983964;28;20021;-74
2023/04/16 09:49:44;;;;;;;23.90;14.63;;;;;;;9.32;100.00;101314.66;4971936;28;20042;-75
2023/04/16 09:52:14;;;;;;;29.83;14.30;;;;;;;9.26;100.00;101308.09;4985587;28;20042;-74
2023/04/16 09:54:52;;;;;;;25.40;14.85;;;;;;;9.26;100.00;101346.22;4982306;28;20030;-74
2023/04/16 09:57:22;;;;;;;22.98;15.73;;;;;;;9.22;100.00;101359.97;4974978;28;20150;-74
2023/04/16 09:59:52;;;;;;;27.05;15.55;;;;;;;9.11;100.00;101358.28;4978046;28;20038;-75
2023/04/16 10:02:19;;;;;;;27.05;14.65;;;;;;;9.14;100.00;101397.97;4971407;28;20069;-75
2023/04/16 10:04:51;;;;;;;35.22;19.25;;;;;;;9.29;100.00;101457.88;4978586;28;20038;-75
2023/04/16 10:07:18;;;;;;;27.27;16.20;;;;;;;9.81;100.00;101632.81;4962479;28;20034;-75
2023/04/16 10:09:43;;;;;;;28.50;15.30;;;;;;;9.66;100.00;101496.38;4979687;28;20030;-75
2023/04/16 10:12:11;;;;;;;29.77;15.80;;;;;;;9.55;100.00;101417.34;4973424;28;20043;-75
2023/04/16 10:14:37;;;;;;;29.20;15.48;;;;;;;9.54;100.00;101393.53;4990987;28;20046;-74
2023/04/16 10:17:03;;;;;;;32.47;17.48;;;;;;;9.35;100.00;101352.56;4981235;28;20064;-75
2023/04/16 10:19:30;;;;;;;26.10;15.98;;;;;;;9.44;100.00;101369.53;4970923;28;20034;-74
2023/04/16 10:21:57;;;;;;;34.92;19.27;;;;;;;9.29;100.00;101345.09;4981304;28;20105;-73
2023/04/16 10:24:22;;;;;;;29.85;17.48;;;;;;;9.39;100.00;101379.75;4976768;28;20023;-74
2023/04/16 10:26:50;;;;;;;23.83;15.45;;;;;;;9.39;100.00;101395.75;4968540;28;20039;-75
2023/04/16 10:29:16;;;;;;;29.95;15.95;;;;;;;9.40;100.00;101400.09;4983090;28;20038;-74
2023/04/16 10:31:42;;;;;;;26.10;16.75;;;;;;;9.44;100.00;101418.34;4980879;28;20376;-76
2023/04/16 10:34:09;;;;;;;23.75;14.07;;;;;;;9.43;100.00;101453.97;4973380;28;20030;-75
2023/04/16 10:36:38;;;;;;;26.55;17.02;;;;;;;9.52;100.00;101526.94;4980604;28;20483;-74
2023/04/16 10:39:09;;;;;;;30.55;17.17;;;;;;;9.39;100.00;101614.28;4978759;28;20046;-75
2023/04/16 10:41:35;;;;;;;29.55;17.55;;;;;;;9.35;100.00;101679.50;4997584;28;20073;-75
2023/04/16 10:44:08;;;;;;;;;;;;;;;9.35;100.00;101711.50;4990497;28;20043;-75
2023/04/16 10:46:40;;;;;;;26.02;16.02;;;;;;;9.51;100.00;101752.69;4982531;28;19935;-75
2023/04/16 10:49:22;;;;;;;23.92;16.23;;;;;;;9.65;100.00;101761.34;4979939;28;20030;-74
2023/04/16 10:51:55;;;;;;;23.65;15.65;;;;;;;9.73;100.00;101762.34;4975175;28;20454;-75
2023/04/16 10:54:26;;;;;;;23.55;15.95;;;;;;;9.76;100.00;101753.22;4974163;28;20201;-73
2023/04/16 10:56:54;;;;;;;28.08;17.33;;;;;;;9.80;100.00;101728.00;4974853;28;20043;-75
2023/04/16 10:59:21;;;;;;;27.17;16.00;;;;;;;9.65;100.00;101687.50;4983585;28;20197;-75
2023/04/16 11:01:53;;;;;;;25.60;16.70;;;;;;;9.41;100.00;101623.84;4964705;28;20030;-74
2023/04/16 11:04:18;;;;;;;27.27;16.25;;;;;;;9.50;100.00;101640.84;4990850;28;20053;-74
2023/04/16 11:07:16;;;;;;;30.77;18.60;;;;;;;9.45;100.00;101611.94;4976520;28;20064;-75